Time;durP1;ratioP1;P1;durP2;ratioP2;P2;SDS_P1;SDS_P2;PMS_P1;PMS_P2;Temp;Humidity;BMP_temperature;BMP_pressure;BME280_temperature;BME280_humidity;BME280_pressure;Samples;Min_cycle;Max_cycle;Signal;HPM_P1;HPM_P2
2023/05/25 00:00:10;;;;;;;14.43;5.57;;;;;;;12.19;72.06;102467.56;5034581;28;20029;-66
2023/05/25 00:02:38;;;;;;;15.98;5.47;;;;;;;12.14;71.72;102461.22;5034651;28;20037;-66
2023/05/25 00:05:04;;;;;;;11.77;5.15;;;;;;;12.09;72.06;102458.44;5016841;28;20435;-66
2023/05/25 00:07:30;;;;;;;15.23;5.85;;;;;;;12.00;72.33;102456.41;5034420;28;20059;-67
2023/05/25 00:09:55;;;;;;;16.02;5.85;;;;;;;12.00;72.45;102458.16;5016779;28;20121;-66
2023/05/25 00:12:20;;;;;;;15.48;5.88;;;;;;;11.96;73.02;102457.16;5034533;28;20041;-66
2023/05/25 00:14:46;;;;;;;13.60;5.18;;;;;;;11.94;72.58;102464.16;5034350;28;20022;-67
2023/05/25 00:17:11;;;;;;;18.25;5.45;;;;;;;11.96;72.76;102462.47;5034360;28;20116;-67
2023/05/25 00:19:43;;;;;;;14.40;5.88;;;;;;;11.95;73.18;102465.97;5034405;28;20025;-65
2023/05/25 00:22:09;;;;;;;20.60;5.80;;;;;;;11.99;72.98;102464.28;5034437;28;20034;-66
2023/05/25 00:24:35;;;;;;;15.07;5.25;;;;;;;11.92;72.90;102460.56;5034742;28;20089;-67
2023/05/25 00:27:01;;;;;;;13.73;5.05;;;;;;;11.87;73.56;102467.47;5034050;28;20033;-67
2023/05/25 00:29:28;;;;;;;12.45;5.90;;;;;;;11.83;73.59;102462.03;5033593;28;20423;-66
2023/05/25 00:31:53;;;;;;;13.35;5.15;;;;;;;11.78;74.14;102459.22;5034070;28;20044;-67
2023/05/25 00:34:19;;;;;;;13.15;5.50;;;;;;;11.74;73.83;102460.84;5033948;28;20033;-66
2023/05/25 00:36:47;;;;;;;15.10;5.20;;;;;;;11.71;74.11;102460.75;5033743;28;20060;-67
2023/05/25 00:39:16;;;;;;;11.52;5.05;;;;;;;11.73;73.80;102464.38;5033917;28;20124;-66
2023/05/25 00:41:47;;;;;;;15.30;5.30;;;;;;;11.70;74.03;102464.25;5033843;28;20065;-66
2023/05/25 00:44:14;;;;;;;12.18;5.00;;;;;;;11.68;74.24;102462.41;5033798;28;20395;-65
2023/05/25 00:46:46;;;;;;;13.23;5.13;;;;;;;11.62;74.25;102467.50;5034185;28;20451;-65
2023/05/25 00:49:17;;;;;;;11.75;5.30;;;;;;;11.58;74.40;102470.91;5033848;28;20111;-67
2023/05/25 00:51:45;;;;;;;14.27;4.88;;;;;;;11.53;74.88;102470.75;4999614;28;20048;-67
2023/05/25 00:54:15;;;;;;;11.45;4.70;;;;;;;11.50;74.66;102468.00;5016304;28;20034;-66
2023/05/25 00:56:45;;;;;;;10.45;4.85;;;;;;;11.47;74.71;102463.50;5033549;28;20041;-65
2023/05/25 00:59:16;;;;;;;13.23;4.63;;;;;;;11.47;74.90;102465.25;5033689;28;20382;-67
2023/05/25 01:01:44;;;;;;;12.55;4.57;;;;;;;11.49;74.47;102471.50;5033208;28;20108;-66
2023/05/25 01:04:14;;;;;;;18.35;4.88;;;;;;;11.59;74.30;102475.34;5033406;28;20506;-66
2023/05/25 01:06:42;;;;;;;11.20;4.63;;;;;;;11.47;74.71;102475.84;5033620;28;20164;-67
2023/05/25 01:09:12;;;;;;;12.80;4.72;;;;;;;11.45;74.92;102475.78;5033229;28;20124;-65
2023/05/25 01:11:41;;;;;;;11.60;4.80;;;;;;;11.50;74.31;102475.94;5033410;28;20034;-67
2023/05/25 01:14:07;;;;;;;10.60;4.60;;;;;;;11.48;74.53;102472.38;5033400;28;20040;-67
2023/05/25 01:16:36;;;;;;;9.75;4.45;;;;;;;11.47;74.30;102470.53;5033282;28;20490;-67
2023/05/25 01:19:02;;;;;;;9.85;4.25;;;;;;;11.41;74.90;102475.63;5033393;28;20418;-66
2023/05/25 01:22:01;;;;;;;12.80;4.72;;;;;;;11.43;75.15;102473.94;5033156;28;20025;-67
2023/05/25 01:25:02;;;;;;;10.23;4.55;;;;;;;11.43;74.23;102484.50;5029154;28;20112;-66
2023/05/25 01:27:38;;;;;;;10.98;4.60;;;;;;;11.34;74.95;102481.56;4949569;28;20036;-66
2023/05/25 01:30:09;;;;;;;13.68;4.65;;;;;;;11.27;75.42;102491.06;5033392;28;20032;-66
2023/05/25 01:32:36;;;;;;;10.50;4.43;;;;;;;11.24;75.41;102489.19;5033100;28;20030;-67
2023/05/25 01:35:03;;;;;;;12.70;4.93;;;;;;;11.24;75.15;102490.94;4999093;28;20040;-67
2023/05/25 01:37:30;;;;;;;13.73;4.72;;;;;;;11.22;75.73;102496.19;5033067;28;20030;-67
2023/05/25 01:39:55;;;;;;;11.68;4.60;;;;;;;11.18;75.80;102504.88;5032124;28;20391;-67
2023/05/25 01:42:21;;;;;;;8.30;4.32;;;;;;;11.06;75.71;102504.44;5032980;28;20501;-66
2023/05/25 01:44:47;;;;;;;13.27;4.78;;;;;;;11.04;76.13;102496.44;4998834;28;20034;-65
2023/05/25 01:47:20;;;;;;;12.05;4.50;;;;;;;10.98;76.22;102500.63;5032881;28;20030;-67
2023/05/25 01:49:58;;;;;;;9.80;4.78;;;;;;;10.89;76.40;102498.53;5032909;28;20485;-66
2023/05/25 01:52:32;;;;;;;11.23;4.72;;;;;;;10.92;76.15;102497.72;5032796;28;20483;-66
2023/05/25 01:55:20;;;;;;;13.07;5.18;;;;;;;11.00;76.51;102504.19;5032607;28;20041;-67
2023/05/25 01:57:49;;;;;;;12.35;5.10;;;;;;;10.92;76.75;102513.59;5015034;28;20421;-66
2023/05/25 02:00:18;;;;;;;11.82;5.22;;;;;;;10.95;76.63;102511.06;5032756;28;20044;-67
2023/05/25 02:02:45;;;;;;;11.25;4.60;;;;;;;10.93;76.58;102508.41;5032727;28;20021;-67
2023/05/25 02:05:11;;;;;;;12.05;4.95;;;;;;;10.88;76.28;102501.16;5032800;28;20032;-67
2023/05/25 02:07:37;;;;;;;12.05;4.88;;;;;;;10.86;76.43;102509.00;5032523;28;20445;-67
2023/05/25 02:10:03;;;;;;;10.55;4.88;;;;;;;10.86;76.82;102510.75;5032707;28;20113;-67
2023/05/25 02:12:28;;;;;;;8.55;4.45;;;;;;;10.92;76.18;102506.59;5032765;28;20036;-66
2023/05/25 02:14:53;;;;;;;12.45;4.75;;;;;;;11.00;76.07;102506.84;5032979;28;20037;-67
2023/05/25 02:17:19;;;;;;;12.93;4.85;;;;;;;11.05;75.68;102502.66;5032618;28;20030;-66
2023/05/25 02:19:47;;;;;;;10.57;4.50;;;;;;;11.07;75.32;102500.94;5032839;28;20083;-67
2023/05/25 02:22:12;;;;;;;8.63;4.63;;;;;;;11.13;74.91;102506.44;5032522;28;20029;-66
2023/05/25 02:24:38;;;;;;;11.48;4.93;;;;;;;11.13;75.01;102502.88;5032558;28;20036;-67
2023/05/25 02:27:05;;;;;;;11.30;4.80;;;;;;;11.14;74.46;102502.06;5032613;28;20026;-67
2023/05/25 02:29:30;;;;;;;10.63;4.22;;;;;;;11.09;74.92;102499.25;5032650;28;20066;-66
2023/05/25 02:31:56;;;;;;;10.50;4.45;;;;;;;11.04;75.32;102499.06;5032805;28;20052;-67
2023/05/25 02:34:21;;;;;;;8.25;4.65;;;;;;;11.06;75.01;102500.91;5032477;28;20033;-67
2023/05/25 02:36:46;;;;;;;10.60;4.70;;;;;;;11.04;75.06;102499.06;5032543;28;20467;-66
2023/05/25 02:39:12;;;;;;;9.98;4.72;;;;;;;11.07;74.51;102507.97;5032727;28;20025;-66
2023/05/25 02:41:38;;;;;;;10.15;4.30;;;;;;;11.04;74.45;102499.06;5014828;28;20037;-66
2023/05/25 02:44:04;;;;;;;8.73;4.50;;;;;;;11.01;74.45;102504.28;5014786;28;20544;-66
2023/05/25 02:46:29;;;;;;;11.30;4.43;;;;;;;11.02;74.45;102508.72;5014678;28;20028;-66
2023/05/25 02:48:55;;;;;;;11.60;4.70;;;;;;;10.99;75.18;102505.06;5032591;28;20153;-66
2023/05/25 02:51:21;;;;;;;13.13;4.72;;;;;;;10.95;74.89;102497.84;5033346;28;20064;-67
2023/05/25 02:53:47;;;;;;;16.45;5.38;;;;;;;10.96;75.28;102504.94;5035945;28;20032;-66
2023/05/25 02:56:12;;;;;;;11.10;5.30;;;;;;;10.99;75.19;102508.59;5017797;28;20049;-66
2023/05/25 02:58:38;;;;;;;9.23;5.03;;;;;;;11.03;74.51;102499.94;5018209;28;20128;-67
2023/05/25 03:01:04;;;;;;;12.82;5.50;;;;;;;11.01;74.90;102516.59;5035977;28;20096;-66
2023/05/25 03:03:30;;;;;;;9.93;5.55;;;;;;;10.95;74.46;102501.41;5035715;28;20033;-67
2023/05/25 03:05:56;;;;;;;9.43;5.05;;;;;;;10.90;74.49;102492.41;5001685;28;20080;-66
2023/05/25 03:08:22;;;;;;;12.30;5.60;;;;;;;10.93;74.51;102503.09;5017850;28;20052;-65
2023/05/25 03:10:47;;;;;;;13.63;5.68;;;;;;;10.86;75.00;102506.34;5018072;28;20028;-66
2023/05/25 03:13:13;;;;;;;11.07;5.85;;;;;;;10.83;75.44;102505.34;5035697;28;20095;-68
2023/05/25 03:15:39;;;;;;;13.77;6.07;;;;;;;10.78;75.25;102516.66;5035547;28;20040;-67
2023/05/25 03:18:05;;;;;;;14.25;6.15;;;;;;;10.73;75.41;102522.63;5035527;28;20034;-66
2023/05/25 03:20:33;;;;;;;10.30;6.25;;;;;;;10.78;75.77;102529.88;5035295;28;20032;-66
2023/05/25 03:22:58;;;;;;;12.40;5.88;;;;;;;10.81;75.46;102528.19;5035578;28;20044;-67
2023/05/25 03:25:24;;;;;;;10.60;5.93;;;;;;;10.74;75.80;102525.31;5035405;28;20394;-67
2023/05/25 03:27:53;;;;;;;11.73;6.05;;;;;;;10.70;75.83;102528.69;5035051;28;20378;-67
2023/05/25 03:30:21;;;;;;;12.90;6.70;;;;;;;10.63;76.17;102534.63;5035316;28;20033;-66
2023/05/25 03:32:47;;;;;;;13.25;6.70;;;;;;;10.65;76.13;102545.22;5035276;28;20467;-67
2023/05/25 03:35:12;;;;;;;13.25;6.40;;;;;;;10.60;76.11;102541.53;5017411;28;20041;-67
2023/05/25 03:37:38;;;;;;;12.60;6.63;;;;;;;10.62;76.21;102551.31;5035145;28;20113;-65
2023/05/25 03:40:04;;;;;;;15.18;6.88;;;;;;;10.60;76.30;102549.44;5035123;28;20112;-66
2023/05/25 03:42:29;;;;;;;12.05;6.53;;;;;;;10.53;76.19;102553.59;5035031;28;20087;-67
2023/05/25 03:44:54;;;;;;;10.02;6.40;;;;;;;10.43;76.57;102544.41;5035318;28;20035;-67
2023/05/25 03:47:20;;;;;;;11.60;6.47;;;;;;;10.45;76.87;102552.41;5034960;28;20034;-67
2023/05/25 03:49:45;;;;;;;15.57;7.20;;;;;;;10.37;77.07;102553.88;5035003;28;20052;-66
2023/05/25 03:52:11;;;;;;;14.25;6.30;;;;;;;10.28;77.32;102551.75;5034854;28;20494;-65
2023/05/25 03:54:36;;;;;;;15.02;6.93;;;;;;;10.23;77.79;102556.81;5034764;28;20025;-66
2023/05/25 03:57:02;;;;;;;12.25;6.47;;;;;;;10.21;78.07;102553.22;5017061;28;20117;-67
2023/05/25 03:59:28;;;;;;;9.63;6.30;;;;;;;10.19;78.19;102556.63;5034731;28;20033;-67
2023/05/25 04:01:54;;;;;;;15.55;7.03;;;;;;;10.19;78.59;102568.13;5034690;28;20014;-67
2023/05/25 04:04:19;;;;;;;14.57;6.63;;;;;;;10.17;78.75;102563.59;5034007;28;20051;-68
2023/05/25 04:06:47;;;;;;;12.85;7.15;;;;;;;10.12;78.81;102563.41;5034395;28;20029;-66
2023/05/25 04:09:14;;;;;;;12.77;7.07;;;;;;;10.13;78.73;102559.03;5016672;28;20045;-67
2023/05/25 04:11:39;;;;;;;15.68;7.07;;;;;;;10.16;78.91;102559.16;5034516;28;20025;-67
2023/05/25 04:14:05;;;;;;;12.48;7.38;;;;;;;10.13;79.11;102559.94;5035103;28;20024;-65
2023/05/25 04:16:30;;;;;;;16.35;7.20;;;;;;;10.27;79.33;102556.13;5034450;28;20156;-67
2023/05/25 04:18:56;;;;;;;13.23;7.97;;;;;;;10.24;79.15;102565.66;5034335;28;20061;-67
2023/05/25 04:21:21;;;;;;;14.65;7.63;;;;;;;10.25;79.31;102563.09;5034214;28;20057;-66
2023/05/25 04:23:47;;;;;;;12.82;7.88;;;;;;;10.33;79.02;102562.50;5034467;28;20126;-67
2023/05/25 04:26:14;;;;;;;13.77;7.88;;;;;;;10.33;79.27;102567.78;5034117;28;20113;-66
2023/05/25 04:28:40;;;;;;;12.13;7.50;;;;;;;10.38;79.09;102571.50;5016388;28;20029;-67
2023/05/25 04:31:06;;;;;;;14.85;7.90;;;;;;;10.41;79.23;102574.28;5016649;28;20481;-66
2023/05/25 04:33:33;;;;;;;16.27;8.15;;;;;;;10.45;79.49;102576.22;5034096;28;20033;-66
2023/05/25 04:35:59;;;;;;;14.43;8.25;;;;;;;10.46;79.37;102578.91;5034302;28;20036;-66
2023/05/25 04:38:25;;;;;;;13.18;7.45;;;;;;;10.50;79.48;102574.63;5033961;28;20037;-67
2023/05/25 04:40:52;;;;;;;13.32;7.43;;;;;;;10.57;79.25;102576.66;5016282;28;20071;-67
2023/05/25 04:43:19;;;;;;;14.60;7.47;;;;;;;10.64;79.66;102580.44;5033938;28;20033;-67
2023/05/25 04:45:45;;;;;;;14.80;7.20;;;;;;;10.65;79.56;102582.25;5016156;28;20022;-65
2023/05/25 04:48:14;;;;;;;13.15;7.20;;;;;;;10.66;80.09;102568.16;5033770;28;20028;-67
2023/05/25 04:50:40;;;;;;;12.68;7.00;;;;;;;10.71;80.20;102579.84;5016750;28;20037;-67
2023/05/25 04:53:05;;;;;;;15.77;7.35;;;;;;;10.72;80.48;102576.34;5033571;28;20022;-65
2023/05/25 04:55:31;;;;;;;15.27;7.40;;;;;;;10.78;80.54;102584.50;5033564;28;20052;-67
2023/05/25 04:57:57;;;;;;;15.60;6.85;;;;;;;10.85;80.92;102581.25;5033391;28;20039;-67
2023/05/25 05:00:23;;;;;;;13.27;6.90;;;;;;;10.96;80.48;102589.56;5015921;28;20137;-67
2023/05/25 05:02:50;;;;;;;15.50;6.70;;;;;;;10.99;81.21;102592.34;5033843;28;20101;-66
2023/05/25 05:05:16;;;;;;;16.92;7.22;;;;;;;11.11;80.95;102591.91;5015924;28;20087;-67
2023/05/25 05:07:42;;;;;;;13.70;6.30;;;;;;;11.11;80.61;102592.81;5033416;28;20034;-67
2023/05/25 05:10:08;;;;;;;14.57;6.68;;;;;;;11.22;81.19;102598.47;5033557;28;20088;-65
2023/05/25 05:12:33;;;;;;;14.27;6.50;;;;;;;11.27;80.91;102602.22;5033475;28;20120;-66
2023/05/25 05:14:59;;;;;;;15.32;7.07;;;;;;;11.39;81.06;102597.34;5033264;28;20458;-67
2023/05/25 05:17:25;;;;;;;11.75;6.50;;;;;;;11.44;81.14;102594.88;5033302;28;20030;-67
2023/05/25 05:19:50;;;;;;;14.40;6.50;;;;;;;11.56;80.84;102594.38;4999295;28;20364;-66
2023/05/25 05:22:16;;;;;;;12.57;5.93;;;;;;;11.70;80.76;102593.13;5033172;28;20033;-67
2023/05/25 05:24:42;;;;;;;15.32;6.30;;;;;;;11.83;80.43;102607.72;5033577;28;20069;-67
2023/05/25 05:27:07;;;;;;;13.25;5.63;;;;;;;11.92;79.48;102597.41;5032897;28;20442;-67
2023/05/25 05:29:33;;;;;;;13.70;5.57;;;;;;;12.03;79.92;102607.53;5015551;28;20444;-66
2023/05/25 05:31:59;;;;;;;12.15;5.63;;;;;;;12.12;79.46;102600.72;5032989;28;20082;-67
2023/05/25 05:34:25;;;;;;;11.95;6.10;;;;;;;12.24;79.33;102607.31;5015319;28;20112;-67
2023/05/25 05:36:51;;;;;;;12.23;5.35;;;;;;;12.37;78.65;102613.00;5032897;28;20159;-68
2023/05/25 05:39:16;;;;;;;14.27;5.47;;;;;;;12.54;77.53;102617.97;5033015;28;20061;-68
2023/05/25 05:41:44;;;;;;;11.50;5.47;;;;;;;12.64;77.40;102605.94;5015301;28;20061;-66
2023/05/25 05:44:10;;;;;;;17.42;5.85;;;;;;;12.72;77.48;102609.72;5033197;28;20033;-66
2023/05/25 05:46:36;;;;;;;15.90;5.65;;;;;;;12.89;77.77;102625.19;5033189;28;20030;-67
2023/05/25 05:49:02;;;;;;;15.60;5.35;;;;;;;13.02;76.80;102624.75;5033092;28;20029;-66
2023/05/25 05:51:28;;;;;;;15.70;5.65;;;;;;;13.18;76.26;102629.59;5015626;28;20034;-66
2023/05/25 05:53:53;;;;;;;15.93;5.93;;;;;;;13.26;75.57;102629.88;5032875;28;20056;-65
2023/05/25 05:56:19;;;;;;;12.43;5.70;;;;;;;13.41;75.77;102632.06;5019693;28;20050;-67
2023/05/25 05:58:46;;;;;;;9.50;5.53;;;;;;;13.53;74.46;102638.63;5013069;28;20046;-67
2023/05/25 06:01:11;;;;;;;12.18;5.70;;;;;;;13.70;74.21;102638.16;4995519;28;20426;-68
2023/05/25 06:03:37;;;;;;;13.55;5.60;;;;;;;13.85;73.43;102635.91;5012997;28;20109;-66
2023/05/25 06:06:03;;;;;;;13.02;5.90;;;;;;;14.05;74.02;102639.09;4995452;28;20026;-67
2023/05/25 06:08:28;;;;;;;9.20;5.30;;;;;;;14.22;73.60;102645.72;5012829;28;20076;-67
2023/05/25 06:10:55;;;;;;;18.73;5.60;;;;;;;14.40;72.40;102641.72;5012833;28;20092;-67
2023/05/25 06:13:21;;;;;;;13.73;5.15;;;;;;;14.56;70.55;102640.31;5013128;28;20026;-68
2023/05/25 06:15:46;;;;;;;12.93;5.32;;;;;;;14.72;70.56;102645.13;5013001;28;20033;-66
2023/05/25 06:18:12;;;;;;;11.23;5.45;;;;;;;14.95;68.72;102650.97;5012901;28;20045;-66
2023/05/25 06:20:37;;;;;;;14.18;5.22;;;;;;;15.09;68.71;102654.81;5012867;28;20076;-67
2023/05/25 06:23:02;;;;;;;10.85;4.85;;;;;;;15.25;67.21;102650.72;4995515;28;20045;-67
2023/05/25 06:25:28;;;;;;;13.27;5.13;;;;;;;15.44;67.01;102654.63;5012871;28;20101;-67
2023/05/25 06:27:53;;;;;;;10.73;4.97;;;;;;;15.49;64.96;102661.84;5016171;28;20440;-67
2023/05/25 06:30:19;;;;;;;12.88;5.03;;;;;;;15.53;64.63;102654.81;5016753;28;20026;-66
2023/05/25 06:32:44;;;;;;;11.55;4.75;;;;;;;15.72;65.23;102661.44;5016597;28;20109;-67
2023/05/25 06:35:16;;;;;;;9.32;4.57;;;;;;;15.91;64.41;102657.34;5016590;28;20030;-66
2023/05/25 06:37:41;;;;;;;9.40;5.00;;;;;;;16.00;63.40;102668.16;5016766;28;20076;-67
2023/05/25 06:40:10;;;;;;;13.32;4.95;;;;;;;16.11;63.54;102663.91;4998995;28;20041;-67
2023/05/25 06:42:36;;;;;;;12.15;4.85;;;;;;;16.18;62.36;102672.91;5016327;28;20467;-66
2023/05/25 06:45:02;;;;;;;9.63;4.72;;;;;;;16.21;62.15;102665.84;5016590;28;20088;-66
2023/05/25 06:47:28;;;;;;;9.48;4.90;;;;;;;16.01;62.13;102675.28;5016215;28;20036;-66
2023/05/25 06:49:53;;;;;;;9.15;4.82;;;;;;;15.89;62.40;102678.66;4998624;28;20018;-66
2023/05/25 06:52:19;;;;;;;9.75;5.05;;;;;;;15.83;63.30;102680.28;5016111;28;20022;-66
2023/05/25 06:54:44;;;;;;;15.73;5.13;;;;;;;15.85;62.62;102686.56;5016200;28;20030;-65
2023/05/25 06:57:09;;;;;;;14.32;5.40;;;;;;;15.77;63.30;102681.97;5035408;28;20125;-66
2023/05/25 06:59:35;;;;;;;12.73;5.35;;;;;;;15.78;63.46;102681.09;5035946;28;20040;-67
2023/05/25 07:02:00;;;;;;;10.32;4.80;;;;;;;15.84;63.87;102674.06;5035895;28;20053;-67
2023/05/25 07:04:27;;;;;;;13.40;5.20;;;;;;;15.86;63.17;102670.59;5018166;28;20467;-66
2023/05/25 07:06:52;;;;;;;13.35;5.40;;;;;;;15.90;62.86;102676.88;5035957;28;20171;-66
2023/05/25 07:09:18;;;;;;;11.73;5.00;;;;;;;15.80;62.47;102675.78;5035763;28;20104;-66
2023/05/25 07:11:44;;;;;;;12.43;4.82;;;;;;;15.72;62.56;102681.00;5018020;28;20033;-66
2023/05/25 07:14:09;;;;;;;8.95;5.07;;;;;;;15.87;63.19;102685.69;5035634;28;20044;-67
2023/05/25 07:16:35;;;;;;;10.95;5.05;;;;;;;16.11;61.54;102687.91;5035505;28;20098;-66
2023/05/25 07:19:00;;;;;;;11.30;4.78;;;;;;;16.38;61.26;102681.25;5035517;28;20053;-67
2023/05/25 07:21:26;;;;;;;11.15;5.00;;;;;;;16.82;59.10;102679.28;5035625;28;20026;-67
2023/05/25 07:23:51;;;;;;;11.82;4.85;;;;;;;16.94;58.48;102675.88;5035788;28;20105;-67
2023/05/25 07:26:17;;;;;;;9.80;4.90;;;;;;;17.33;58.04;102690.63;5017508;28;20121;-65
2023/05/25 07:28:42;;;;;;;13.77;4.75;;;;;;;17.58;55.88;102686.47;5035202;28;20467;-66
2023/05/25 07:31:09;;;;;;;10.18;4.45;;;;;;;17.64;55.75;102683.88;5035317;28;20022;-66
2023/05/25 07:33:35;;;;;;;11.57;4.63;;;;;;;17.73;55.35;102684.88;5035451;28;20025;-66
2023/05/25 07:36:00;;;;;;;9.02;4.57;;;;;;;17.93;54.89;102689.56;5017361;28;20143;-67
2023/05/25 07:38:26;;;;;;;11.52;4.80;;;;;;;18.02;54.62;102695.88;5033774;28;20083;-67
2023/05/25 07:40:51;;;;;;;11.57;4.97;;;;;;;18.11;53.87;102689.72;5035100;28;20394;-67
2023/05/25 07:43:17;;;;;;;12.30;4.85;;;;;;;18.34;54.94;102695.28;5035261;28;20029;-66
2023/05/25 07:45:42;;;;;;;10.65;5.15;;;;;;;18.47;54.14;102686.47;5035026;28;20440;-66
2023/05/25 07:48:08;;;;;;;10.90;4.63;;;;;;;18.81;54.18;102684.06;5033756;28;20387;-67
2023/05/25 07:50:34;;;;;;;12.05;4.72;;;;;;;19.14;53.97;102688.72;5034644;28;20108;-66
2023/05/25 07:52:59;;;;;;;10.80;4.80;;;;;;;19.54;52.43;102685.28;5016770;28;20033;-67
2023/05/25 07:55:27;;;;;;;12.40;4.50;;;;;;;19.80;50.68;102685.38;5033173;28;20540;-66
2023/05/25 07:57:53;;;;;;;12.35;4.63;;;;;;;20.01;49.60;102678.25;5023819;28;20056;-67
2023/05/25 08:00:19;;;;;;;12.80;4.80;;;;;;;19.97;48.47;102688.97;5033331;28;20022;-67
2023/05/25 08:02:44;;;;;;;11.20;4.45;;;;;;;19.90;49.77;102687.16;5034601;28;20038;-66
2023/05/25 08:05:10;;;;;;;12.38;5.00;;;;;;;19.80;48.90;102688.94;5034677;28;20033;-67
2023/05/25 08:07:35;;;;;;;12.60;4.85;;;;;;;20.10;47.76;102689.88;5034325;28;20066;-67
2023/05/25 08:10:02;;;;;;;17.65;4.85;;;;;;;20.26;47.60;102691.69;5034528;28;20088;-67
2023/05/25 08:12:28;;;;;;;14.50;4.80;;;;;;;20.58;47.30;102694.38;5034455;28;20025;-66
2023/05/25 08:14:54;;;;;;;12.32;4.57;;;;;;;20.81;46.67;102694.31;5034492;28;20030;-67
2023/05/25 08:17:20;;;;;;;11.45;4.80;;;;;;;21.01;45.61;102686.22;5034427;28;20036;-67
2023/05/25 08:19:45;;;;;;;10.65;5.00;;;;;;;21.27;46.17;102692.38;5034398;28;20471;-66
2023/05/25 08:22:11;;;;;;;14.07;4.60;;;;;;;21.42;44.40;102695.97;5016507;28;20037;-67
2023/05/25 08:24:36;;;;;;;13.00;4.30;;;;;;;21.47;45.22;102699.50;5030504;28;20029;-68
2023/05/25 08:27:02;;;;;;;11.98;4.22;;;;;;;21.66;44.22;102708.38;5033851;28;20032;-66
2023/05/25 08:29:27;;;;;;;10.20;4.18;;;;;;;21.50;44.39;102703.09;5033615;28;20060;-66
2023/05/25 08:31:53;;;;;;;15.35;4.10;;;;;;;21.24;43.73;102699.56;5034242;28;20064;-65
2023/05/25 08:34:19;;;;;;;12.43;4.47;;;;;;;21.32;43.60;102704.94;5033932;28;20029;-66
2023/05/25 08:36:44;;;;;;;11.52;4.28;;;;;;;21.39;43.00;102704.91;5034010;28;20025;-65
2023/05/25 08:39:10;;;;;;;12.40;4.15;;;;;;;21.34;42.92;102703.16;5033944;28;20040;-67
2023/05/25 08:41:42;;;;;;;11.20;4.10;;;;;;;21.48;42.81;102701.28;5016090;28;20534;-65
2023/05/25 08:44:09;;;;;;;9.52;4.05;;;;;;;21.70;42.58;102712.81;5033947;28;20080;-67
2023/05/25 08:46:34;;;;;;;11.93;3.90;;;;;;;22.22;41.55;102708.00;5033892;28;20049;-66
2023/05/25 08:49:13;;;;;;;12.25;4.30;;;;;;;22.64;42.10;102707.66;5033536;28;20593;-66
2023/05/25 08:51:51;;;;;;;10.90;4.05;;;;;;;22.71;40.88;102701.31;5015996;28;20030;-66
2023/05/25 08:54:19;;;;;;;14.27;4.55;;;;;;;22.59;41.02;102705.00;5033635;28;20052;-66
2023/05/25 08:56:50;;;;;;;10.77;4.05;;;;;;;22.35;41.87;102713.28;5033418;28;20052;-66
2023/05/25 08:59:21;;;;;;;11.23;4.28;;;;;;;21.92;41.73;102713.59;5033839;28;20041;-66
2023/05/25 09:01:52;;;;;;;11.23;4.13;;;;;;;21.86;42.98;102711.84;5033541;28;20029;-63
2023/05/25 09:04:19;;;;;;;10.80;4.20;;;;;;;21.45;42.43;102721.00;5033606;28;20276;-64
2023/05/25 09:06:46;;;;;;;13.07;4.05;;;;;;;21.04;43.85;102709.50;5033463;28;20101;-64
2023/05/25 09:09:12;;;;;;;13.40;4.60;;;;;;;20.62;44.02;102714.97;5015689;28;20045;-64
2023/05/25 09:11:40;;;;;;;14.55;4.28;;;;;;;20.29;45.49;102715.81;5015290;28;20035;-65
2023/05/25 09:14:07;;;;;;;15.05;4.50;;;;;;;20.08;45.92;102713.13;5033581;28;20114;-65
2023/05/25 09:16:35;;;;;;;10.80;4.13;;;;;;;19.74;47.19;102724.72;5033059;28;20029;-65
2023/05/25 09:19:01;;;;;;;12.25;4.55;;;;;;;19.58;47.16;102720.16;5033261;28;20100;-65
2023/05/25 09:21:26;;;;;;;9.38;4.10;;;;;;;19.33;47.57;102723.63;5033286;28;20128;-65
2023/05/25 09:23:52;;;;;;;10.60;4.05;;;;;;;19.19;47.61;102721.78;5033057;28;20025;-63
2023/05/25 09:26:18;;;;;;;12.55;4.18;;;;;;;18.97;48.00;102723.44;5033123;28;20021;-64
2023/05/25 09:28:45;;;;;;;11.35;4.15;;;;;;;18.89;49.12;102725.19;5033332;28;20163;-64
2023/05/25 09:31:11;;;;;;;9.60;3.88;;;;;;;18.89;49.54;102718.94;5033080;28;20549;-64
2023/05/25 09:33:38;;;;;;;14.57;4.15;;;;;;;18.83;48.79;102727.81;5033078;28;20068;-64
2023/05/25 09:36:05;;;;;;;11.70;3.80;;;;;;;18.73;47.90;102717.94;5033319;28;20083;-64
2023/05/25 09:38:31;;;;;;;15.15;4.50;;;;;;;18.76;48.49;102729.56;5033287;28;20047;-64
2023/05/25 09:40:57;;;;;;;10.07;4.07;;;;;;;18.96;48.75;102726.09;5033390;28;20394;-64
2023/05/25 09:43:22;;;;;;;10.35;3.83;;;;;;;18.97;48.38;102733.25;5033050;28;20483;-64
2023/05/25 09:45:50;;;;;;;9.98;3.45;;;;;;;18.84;47.90;102726.00;5032930;28;20550;-64
2023/05/25 09:48:16;;;;;;;9.65;3.42;;;;;;;18.60;48.26;102732.09;5032911;28;20056;-63
2023/05/25 09:50:42;;;;;;;16.13;3.75;;;;;;;18.55;47.29;102731.16;5033156;28;20129;-64
2023/05/25 09:53:07;;;;;;;7.88;3.40;;;;;;;18.56;48.00;102727.59;5032064;28;20542;-65
2023/05/25 09:55:33;;;;;;;13.45;3.45;;;;;;;18.56;47.94;102732.94;5032669;28;20099;-64
2023/05/25 09:57:58;;;;;;;11.55;3.72;;;;;;;18.62;47.80;102727.63;5032421;28;20096;-65
2023/05/25 10:00:24;;;;;;;12.40;3.95;;;;;;;18.59;48.04;102732.97;5032795;28;20386;-63
2023/05/25 10:02:50;;;;;;;10.93;3.75;;;;;;;18.73;48.10;102728.63;5036702;28;20104;-64
2023/05/25 10:05:16;;;;;;;15.32;3.95;;;;;;;18.74;47.75;102738.47;5036843;28;20068;-63
2023/05/25 10:07:44;;;;;;;10.88;4.18;;;;;;;18.81;48.24;102731.38;5018941;28;20056;-64
2023/05/25 10:10:14;;;;;;;11.05;4.05;;;;;;;18.90;49.87;102728.75;5019026;28;20386;-64
2023/05/25 10:12:41;;;;;;;12.88;3.88;;;;;;;18.99;49.83;102736.84;5036828;28;20053;-64
2023/05/25 10:15:09;;;;;;;10.38;4.18;;;;;;;19.19;48.60;102739.66;5036729;28;20538;-63
2023/05/25 10:17:42;;;;;;;14.10;4.25;;;;;;;19.32;47.78;102733.47;5036738;28;20021;-64
2023/05/25 10:20:07;;;;;;;;;;;;;;;19.52;47.41;102736.19;5020188;28;20032;-63
2023/05/25 10:22:43;;;;;;;12.30;3.70;;;;;;;19.28;47.86;102734.34;5036505;28;19913;-64
2023/05/25 10:25:31;;;;;;;9.15;3.53;;;;;;;19.11;48.58;102736.91;5036730;28;20481;-64
2023/05/25 10:28:00;;;;;;;18.15;3.85;;;;;;;18.91;48.87;102742.16;5010266;28;20411;-64
2023/05/25 10:30:26;;;;;;;7.53;3.47;;;;;;;19.00;49.22;102734.16;5036640;28;20108;-63
2023/05/25 10:32:54;;;;;;;12.38;3.65;;;;;;;18.92;49.08;102737.69;5036235;28;20109;-64
2023/05/25 10:35:21;;;;;;;9.45;4.05;;;;;;;18.97;48.61;102736.84;5036265;28;20116;-64
2023/05/25 10:37:46;;;;;;;10.20;3.65;;;;;;;19.06;47.97;102741.38;5035825;28;20434;-64
2023/05/25 10:40:13;;;;;;;10.13;4.18;;;;;;;19.22;47.60;102745.91;5036508;28;20021;-63
2023/05/25 10:42:40;;;;;;;12.63;3.80;;;;;;;19.40;47.60;102746.88;5036098;28;20116;-64
2023/05/25 10:45:07;;;;;;;10.98;3.70;;;;;;;19.72;47.14;102737.22;5036359;28;20033;-64
2023/05/25 10:47:40;;;;;;;11.13;3.75;;;;;;;19.84;47.43;102739.03;5036069;28;20022;-64
2023/05/25 10:50:17;;;;;;;11.70;3.67;;;;;;;19.96;47.08;102733.72;5036102;28;20029;-64
2023/05/25 10:52:42;;;;;;;11.52;4.00;;;;;;;19.86;45.49;102739.03;5036127;28;20112;-64
2023/05/25 10:55:08;;;;;;;11.90;4.20;;;;;;;19.92;45.65;102745.31;5035932;28;20113;-64
2023/05/25 10:57:33;;;;;;;10.50;4.25;;;;;;;19.94;46.03;102735.47;5035987;28;20045;-64
2023/05/25 11:00:07;;;;;;;11.43;4.07;;;;;;;20.29;45.79;102740.00;5018403;28;20034;-64
2023/05/25 11:02:52;;;;;;;11.35;3.80;;;;;;;20.97;44.68;102735.50;5035907;28;20462;-64
2023/05/25 11:05:27;;;;;;;11.75;3.78;;;;;;;21.42;43.51;102736.31;5036141;28;20038;-64
2023/05/25 11:07:53;;;;;;;12.25;3.75;;;;;;;21.24;41.45;102738.13;5035708;28;20025;-64
2023/05/25 11:10:37;;;;;;;8.55;3.50;;;;;;;21.19;42.29;102736.31;5035778;28;20025;-64
2023/05/25 11:13:39;;;;;;;9.27;3.97;;;;;;;21.23;43.14;102735.41;5035400;28;20029;-64
2023/05/25 11:16:16;;;;;;;13.10;4.40;;;;;;;21.15;42.36;102735.44;5019317;28;20041;-64
2023/05/25 11:18:42;;;;;;;12.57;4.18;;;;;;;20.96;42.02;102722.97;5035989;28;20061;-64